sensor_id;sensor_type;location;lat;lon;timestamp;pressure;altitude;pressure_sealevel;temperature;humidity
62978;BME280;49073;42.352;23.808;2024-02-23T00:00:44;94539.28;;;2.53;90.06
62978;BME280;49073;42.352;23.808;2024-02-23T00:03:45;94534.69;;;2.67;89.66
62978;BME280;49073;42.352;23.808;2024-02-23T00:06:45;94546.75;;;2.68;89.17
62978;BME280;49073;42.352;23.808;2024-02-23T00:09:46;94537.28;;;2.58;88.44
62978;BME280;49073;42.352;23.808;2024-02-23T00:12:46;94533.56;;;2.51;88.23
62978;BME280;49073;42.352;23.808;2024-02-23T00:15:47;94521.63;;;2.44;88.55
62978;BME280;49073;42.352;23.808;2024-02-23T00:18:48;94526.75;;;2.50;88.14
62978;BME280;49073;42.352;23.808;2024-02-23T00:21:48;94517.47;;;2.43;88.79
62978;BME280;49073;42.352;23.808;2024-02-23T00:24:50;94521.72;;;2.30;89.82
62978;BME280;49073;42.352;23.808;2024-02-23T00:27:51;94515.91;;;2.42;90.44
62978;BME280;49073;42.352;23.808;2024-02-23T00:30:51;94526.91;;;2.44;90.34
62978;BME280;49073;42.352;23.808;2024-02-23T00:33:53;94525.06;;;2.54;90.85
62978;BME280;49073;42.352;23.808;2024-02-23T00:36:53;94517.66;;;2.65;89.20
62978;BME280;49073;42.352;23.808;2024-02-23T00:39:54;94512.09;;;2.66;88.66
62978;BME280;49073;42.352;23.808;2024-02-23T00:42:54;94511.44;;;2.60;89.04
62978;BME280;49073;42.352;23.808;2024-02-23T00:45:55;94512.53;;;2.59;89.30
62978;BME280;49073;42.352;23.808;2024-02-23T00:48:55;94502.00;;;2.59;89.45
62978;BME280;49073;42.352;23.808;2024-02-23T00:51:56;94508.06;;;2.60;88.47
62978;BME280;49073;42.352;23.808;2024-02-23T00:54:56;94500.31;;;2.55;88.85
62978;BME280;49073;42.352;23.808;2024-02-23T00:57:57;94495.00;;;2.37;88.86
62978;BME280;49073;42.352;23.808;2024-02-23T01:00:59;94500.31;;;2.14;89.11
62978;BME280;49073;42.352;23.808;2024-02-23T01:04:00;94492.56;;;2.09;89.41
62978;BME280;49073;42.352;23.808;2024-02-23T01:07:00;94493.66;;;2.08;89.49
62978;BME280;49073;42.352;23.808;2024-02-23T01:10:01;94486.38;;;2.05;89.33
62978;BME280;49073;42.352;23.808;2024-02-23T01:13:02;94487.13;;;2.06;90.28
62978;BME280;49073;42.352;23.808;2024-02-23T01:16:03;94487.78;;;2.11;89.85
62978;BME280;49073;42.352;23.808;2024-02-23T01:19:03;94485.47;;;2.10;89.07
62978;BME280;49073;42.352;23.808;2024-02-23T01:22:04;94479.75;;;2.08;87.92
62978;BME280;49073;42.352;23.808;2024-02-23T01:25:05;94475.38;;;2.03;87.52
62978;BME280;49073;42.352;23.808;2024-02-23T01:28:06;94483.69;;;1.87;88.20
62978;BME280;49073;42.352;23.808;2024-02-23T01:31:10;94483.06;;;1.59;90.20
62978;BME280;49073;42.352;23.808;2024-02-23T01:34:11;94477.16;;;1.53;92.07
62978;BME280;49073;42.352;23.808;2024-02-23T01:37:11;94477.72;;;1.73;92.59
62978;BME280;49073;42.352;23.808;2024-02-23T01:40:12;94479.63;;;1.81;91.53
62978;BME280;49073;42.352;23.808;2024-02-23T01:43:13;94467.13;;;1.87;90.96
62978;BME280;49073;42.352;23.808;2024-02-23T01:46:13;94463.16;;;1.98;89.42
62978;BME280;49073;42.352;23.808;2024-02-23T01:49:17;94461.94;;;2.04;88.26
62978;BME280;49073;42.352;23.808;2024-02-23T01:52:18;94461.94;;;2.04;87.95
62978;BME280;49073;42.352;23.808;2024-02-23T01:55:22;94452.66;;;1.67;89.43
62978;BME280;49073;42.352;23.808;2024-02-23T01:58:24;94454.06;;;1.73;90.28
62978;BME280;49073;42.352;23.808;2024-02-23T02:01:24;94459.84;;;1.52;90.32
62978;BME280;49073;42.352;23.808;2024-02-23T02:04:26;94449.66;;;1.51;91.12
62978;BME280;49073;42.352;23.808;2024-02-23T02:07:27;94434.72;;;1.37;91.10
62978;BME280;49073;42.352;23.808;2024-02-23T02:10:28;94442.06;;;1.49;91.82
62978;BME280;49073;42.352;23.808;2024-02-23T02:13:29;94447.19;;;1.54;91.91
62978;BME280;49073;42.352;23.808;2024-02-23T02:16:30;94441.47;;;1.52;92.83
62978;BME280;49073;42.352;23.808;2024-02-23T02:19:31;94435.19;;;1.62;91.30
62978;BME280;49073;42.352;23.808;2024-02-23T02:22:34;94440.09;;;1.55;90.59
62978;BME280;49073;42.352;23.808;2024-02-23T02:25:35;94439.03;;;1.56;90.56
62978;BME280;49073;42.352;23.808;2024-02-23T02:28:35;94453.09;;;1.60;90.40
62978;BME280;49073;42.352;23.808;2024-02-23T02:31:36;94438.16;;;1.47;90.00
62978;BME280;49073;42.352;23.808;2024-02-23T02:34:37;94438.44;;;1.36;90.77
62978;BME280;49073;42.352;23.808;2024-02-23T02:37:38;94450.72;;;1.50;91.36
62978;BME280;49073;42.352;23.808;2024-02-23T02:40:39;94443.94;;;1.49;90.94
62978;BME280;49073;42.352;23.808;2024-02-23T02:43:40;94445.09;;;1.42;90.66
62978;BME280;49073;42.352;23.808;2024-02-23T02:46:41;94443.16;;;1.25;90.45
62978;BME280;49073;42.352;23.808;2024-02-23T02:49:42;94444.66;;;1.18;91.67
62978;BME280;49073;42.352;23.808;2024-02-23T02:52:42;94453.94;;;1.24;90.75
62978;BME280;49073;42.352;23.808;2024-02-23T02:55:45;94450.31;;;1.11;89.21
62978;BME280;49073;42.352;23.808;2024-02-23T02:58:45;94442.94;;;0.76;90.63
62978;BME280;49073;42.352;23.808;2024-02-23T03:01:46;94450.50;;;0.92;91.21
62978;BME280;49073;42.352;23.808;2024-02-23T03:04:50;94447.66;;;0.88;90.32
62978;BME280;49073;42.352;23.808;2024-02-23T03:07:51;94443.09;;;0.94;90.62
62978;BME280;49073;42.352;23.808;2024-02-23T03:10:52;94455.84;;;1.09;90.47
62978;BME280;49073;42.352;23.808;2024-02-23T03:13:53;94450.97;;;0.94;89.75
62978;BME280;49073;42.352;23.808;2024-02-23T03:16:53;94457.19;;;0.84;89.27
62978;BME280;49073;42.352;23.808;2024-02-23T03:19:54;94449.72;;;0.77;90.66
62978;BME280;49073;42.352;23.808;2024-02-23T03:22:54;94457.69;;;0.86;89.16
62978;BME280;49073;42.352;23.808;2024-02-23T03:25:55;94445.03;;;0.65;88.38
62978;BME280;49073;42.352;23.808;2024-02-23T03:28:56;94440.84;;;0.64;88.56
62978;BME280;49073;42.352;23.808;2024-02-23T03:31:58;94450.53;;;0.64;88.94
62978;BME280;49073;42.352;23.808;2024-02-23T03:34:58;94451.34;;;0.64;89.06
62978;BME280;49073;42.352;23.808;2024-02-23T03:37:59;94447.53;;;0.70;88.56
62978;BME280;49073;42.352;23.808;2024-02-23T03:41:00;94458.13;;;0.65;88.83
62978;BME280;49073;42.352;23.808;2024-02-23T03:44:01;94463.84;;;0.67;87.11
62978;BME280;49073;42.352;23.808;2024-02-23T03:47:01;94456.00;;;0.67;87.69
62978;BME280;49073;42.352;23.808;2024-02-23T03:50:02;94452.09;;;0.65;86.80
62978;BME280;49073;42.352;23.808;2024-02-23T03:53:02;94448.72;;;0.50;87.30
62978;BME280;49073;42.352;23.808;2024-02-23T03:56:04;94451.38;;;0.36;88.03
62978;BME280;49073;42.352;23.808;2024-02-23T03:59:04;94441.66;;;0.37;89.36
62978;BME280;49073;42.352;23.808;2024-02-23T04:02:05;94458.31;;;0.55;89.57
62978;BME280;49073;42.352;23.808;2024-02-23T04:05:06;94462.38;;;0.75;87.44
62978;BME280;49073;42.352;23.808;2024-02-23T04:08:08;94464.03;;;0.57;87.08
62978;BME280;49073;42.352;23.808;2024-02-23T04:11:12;94461.47;;;0.43;87.10
62978;BME280;49073;42.352;23.808;2024-02-23T04:14:13;94457.50;;;0.32;88.05
62978;BME280;49073;42.352;23.808;2024-02-23T04:17:14;94457.41;;;0.37;87.03
62978;BME280;49073;42.352;23.808;2024-02-23T04:20:15;94458.56;;;0.31;86.57
62978;BME280;49073;42.352;23.808;2024-02-23T04:23:15;94463.31;;;0.28;86.99
62978;BME280;49073;42.352;23.808;2024-02-23T04:26:16;94480.28;;;0.17;87.12
62978;BME280;49073;42.352;23.808;2024-02-23T04:29:17;94482.53;;;0.10;87.93
62978;BME280;49073;42.352;23.808;2024-02-23T04:32:18;94480.41;;;0.26;87.99
62978;BME280;49073;42.352;23.808;2024-02-23T04:35:19;94477.41;;;0.33;86.36
62978;BME280;49073;42.352;23.808;2024-02-23T04:38:20;94494.19;;;0.18;86.41
62978;BME280;49073;42.352;23.808;2024-02-23T04:41:20;94485.16;;;0.10;85.97
62978;BME280;49073;42.352;23.808;2024-02-23T04:44:24;94480.47;;;-0.07;87.11
62978;BME280;49073;42.352;23.808;2024-02-23T04:47:25;94490.13;;;0.11;87.04
62978;BME280;49073;42.352;23.808;2024-02-23T04:50:25;94487.50;;;0.11;86.00
62978;BME280;49073;42.352;23.808;2024-02-23T04:53:26;94488.81;;;-0.05;86.78
62978;BME280;49073;42.352;23.808;2024-02-23T04:56:26;94488.41;;;-0.12;87.56
62978;BME280;49073;42.352;23.808;2024-02-23T04:59:27;94490.56;;;-0.15;87.69
62978;BME280;49073;42.352;23.808;2024-02-23T05:02:28;94485.88;;;-0.32;88.94
62978;BME280;49073;42.352;23.808;2024-02-23T05:05:35;94489.19;;;-0.26;89.28
62978;BME280;49073;42.352;23.808;2024-02-23T05:08:35;94479.88;;;-0.32;90.27
62978;BME280;49073;42.352;23.808;2024-02-23T05:11:36;94479.97;;;-0.37;91.15
62978;BME280;49073;42.352;23.808;2024-02-23T05:14:36;94480.94;;;-0.33;92.77
62978;BME280;49073;42.352;23.808;2024-02-23T05:17:37;94489.41;;;-0.22;92.91
62978;BME280;49073;42.352;23.808;2024-02-23T05:20:37;94484.47;;;0.04;90.72
62978;BME280;49073;42.352;23.808;2024-02-23T05:23:38;94479.13;;;-0.05;87.96
62978;BME280;49073;42.352;23.808;2024-02-23T05:26:38;94479.00;;;-0.13;88.98
62978;BME280;49073;42.352;23.808;2024-02-23T05:29:39;94475.66;;;0.00;88.73
62978;BME280;49073;42.352;23.808;2024-02-23T05:32:40;94483.22;;;0.02;89.14
62978;BME280;49073;42.352;23.808;2024-02-23T05:35:40;94485.06;;;0.01;88.31
62978;BME280;49073;42.352;23.808;2024-02-23T05:38:41;94480.88;;;0.14;88.09
62978;BME280;49073;42.352;23.808;2024-02-23T05:41:42;94482.75;;;0.13;88.97
62978;BME280;49073;42.352;23.808;2024-02-23T05:44:46;94484.38;;;0.23;88.57
62978;BME280;49073;42.352;23.808;2024-02-23T05:47:48;94490.19;;;0.34;89.43
62978;BME280;49073;42.352;23.808;2024-02-23T05:50:48;94497.47;;;0.23;90.72
62978;BME280;49073;42.352;23.808;2024-02-23T05:53:49;94505.44;;;0.32;92.28
62978;BME280;49073;42.352;23.808;2024-02-23T05:56:51;94501.25;;;0.59;92.85
62978;BME280;49073;42.352;23.808;2024-02-23T05:59:51;94508.91;;;0.69;92.51
62978;BME280;49073;42.352;23.808;2024-02-23T06:02:52;94507.75;;;0.76;93.56
62978;BME280;49073;42.352;23.808;2024-02-23T06:05:52;94516.22;;;1.09;93.42
62978;BME280;49073;42.352;23.808;2024-02-23T06:08:54;94511.81;;;1.19;93.31
62978;BME280;49073;42.352;23.808;2024-02-23T06:11:54;94512.72;;;1.37;93.80
62978;BME280;49073;42.352;23.808;2024-02-23T06:14:55;94516.25;;;1.55;94.12
62978;BME280;49073;42.352;23.808;2024-02-23T06:17:57;94522.84;;;1.75;93.53
62978;BME280;49073;42.352;23.808;2024-02-23T06:20:58;94515.28;;;1.73;94.36
62978;BME280;49073;42.352;23.808;2024-02-23T06:23:58;94520.19;;;1.98;94.86
62978;BME280;49073;42.352;23.808;2024-02-23T06:26:59;94516.22;;;2.09;93.72
62978;BME280;49073;42.352;23.808;2024-02-23T06:30:00;94523.50;;;2.12;95.11
62978;BME280;49073;42.352;23.808;2024-02-23T06:33:01;94521.75;;;1.99;94.17
62978;BME280;49073;42.352;23.808;2024-02-23T06:36:02;94526.41;;;2.02;95.42
62978;BME280;49073;42.352;23.808;2024-02-23T06:39:03;94533.28;;;2.21;95.96
62978;BME280;49073;42.352;23.808;2024-02-23T06:42:05;94530.53;;;2.26;95.70
62978;BME280;49073;42.352;23.808;2024-02-23T06:45:06;94531.22;;;2.40;94.74
62978;BME280;49073;42.352;23.808;2024-02-23T06:48:08;94531.25;;;2.58;93.98
62978;BME280;49073;42.352;23.808;2024-02-23T06:51:08;94524.34;;;2.71;94.19
62978;BME280;49073;42.352;23.808;2024-02-23T06:54:09;94532.56;;;2.78;92.44
62978;BME280;49073;42.352;23.808;2024-02-23T06:57:10;94543.06;;;2.69;92.46
62978;BME280;49073;42.352;23.808;2024-02-23T07:00:10;94545.84;;;2.73;93.14
62978;BME280;49073;42.352;23.808;2024-02-23T07:03:11;94539.22;;;2.84;93.52
62978;BME280;49073;42.352;23.808;2024-02-23T07:06:12;94538.31;;;2.98;93.52
62978;BME280;49073;42.352;23.808;2024-02-23T07:09:12;94535.69;;;3.07;93.78
62978;BME280;49073;42.352;23.808;2024-02-23T07:12:13;94532.31;;;3.32;92.71
62978;BME280;49073;42.352;23.808;2024-02-23T07:15:14;94535.41;;;3.43;90.87
62978;BME280;49073;42.352;23.808;2024-02-23T07:18:15;94539.75;;;3.57;90.82
62978;BME280;49073;42.352;23.808;2024-02-23T07:21:19;94533.97;;;3.72;90.00
62978;BME280;49073;42.352;23.808;2024-02-23T07:24:20;94542.34;;;3.92;90.44
62978;BME280;49073;42.352;23.808;2024-02-23T07:27:20;94541.53;;;4.00;90.26
62978;BME280;49073;42.352;23.808;2024-02-23T07:30:21;94542.28;;;4.18;88.76
62978;BME280;49073;42.352;23.808;2024-02-23T07:33:21;94537.59;;;4.24;87.70
62978;BME280;49073;42.352;23.808;2024-02-23T07:36:22;94535.66;;;4.42;86.74
62978;BME280;49073;42.352;23.808;2024-02-23T07:39:22;94532.53;;;4.49;87.11
62978;BME280;49073;42.352;23.808;2024-02-23T07:42:23;94524.84;;;4.65;87.43
62978;BME280;49073;42.352;23.808;2024-02-23T07:45:24;94514.50;;;4.81;88.14
62978;BME280;49073;42.352;23.808;2024-02-23T07:48:24;94509.91;;;4.99;86.83
62978;BME280;49073;42.352;23.808;2024-02-23T07:51:25;94506.84;;;5.18;86.33
62978;BME280;49073;42.352;23.808;2024-02-23T07:54:25;94500.09;;;5.42;83.05
62978;BME280;49073;42.352;23.808;2024-02-23T07:57:26;94505.63;;;5.49;81.06
62978;BME280;49073;42.352;23.808;2024-02-23T08:00:27;94503.53;;;5.76;79.71
62978;BME280;49073;42.352;23.808;2024-02-23T08:03:28;94510.94;;;5.83;80.56
62978;BME280;49073;42.352;23.808;2024-02-23T08:06:30;94503.16;;;5.99;80.12
62978;BME280;49073;42.352;23.808;2024-02-23T08:09:30;94501.56;;;6.19;77.85
62978;BME280;49073;42.352;23.808;2024-02-23T08:12:31;94510.63;;;6.31;77.70
62978;BME280;49073;42.352;23.808;2024-02-23T08:15:31;94510.97;;;6.29;76.19
62978;BME280;49073;42.352;23.808;2024-02-23T08:18:32;94513.97;;;6.65;77.94
62978;BME280;49073;42.352;23.808;2024-02-23T08:21:32;94511.72;;;6.92;75.64
62978;BME280;49073;42.352;23.808;2024-02-23T08:24:33;94508.72;;;7.06;74.77
62978;BME280;49073;42.352;23.808;2024-02-23T08:27:34;94503.69;;;7.29;72.36
62978;BME280;49073;42.352;23.808;2024-02-23T08:30:34;94502.69;;;7.34;70.75
62978;BME280;49073;42.352;23.808;2024-02-23T08:33:35;94503.84;;;7.49;70.03
62978;BME280;49073;42.352;23.808;2024-02-23T08:36:36;94498.03;;;7.43;70.26
62978;BME280;49073;42.352;23.808;2024-02-23T08:39:36;94498.50;;;7.61;70.73
62978;BME280;49073;42.352;23.808;2024-02-23T08:42:37;94490.34;;;7.82;68.72
62978;BME280;49073;42.352;23.808;2024-02-23T08:45:38;94489.25;;;7.99;68.92
62978;BME280;49073;42.352;23.808;2024-02-23T08:48:38;94495.78;;;8.18;67.62
62978;BME280;49073;42.352;23.808;2024-02-23T08:51:39;94497.06;;;8.40;66.41
62978;BME280;49073;42.352;23.808;2024-02-23T08:54:39;94487.91;;;8.54;66.40
62978;BME280;49073;42.352;23.808;2024-02-23T08:57:40;94496.47;;;8.47;65.90
62978;BME280;49073;42.352;23.808;2024-02-23T09:00:40;94490.13;;;8.68;65.69
62978;BME280;49073;42.352;23.808;2024-02-23T09:03:41;94480.88;;;8.78;65.66
62978;BME280;49073;42.352;23.808;2024-02-23T09:06:41;94473.81;;;9.21;65.02
62978;BME280;49073;42.352;23.808;2024-02-23T09:09:42;94476.97;;;9.46;62.85
62978;BME280;49073;42.352;23.808;2024-02-23T09:12:42;94473.66;;;9.53;63.54
62978;BME280;49073;42.352;23.808;2024-02-23T09:15:43;94481.19;;;9.48;61.76
62978;BME280;49073;42.352;23.808;2024-02-23T09:18:43;94475.28;;;9.58;62.91
62978;BME280;49073;42.352;23.808;2024-02-23T09:21:44;94471.84;;;9.57;62.42
62978;BME280;49073;42.352;23.808;2024-02-23T09:24:45;94465.81;;;9.80;61.62
62978;BME280;49073;42.352;23.808;2024-02-23T09:27:45;94467.09;;;10.10;61.19
62978;BME280;49073;42.352;23.808;2024-02-23T09:30:46;94479.84;;;10.24;59.14
62978;BME280;49073;42.352;23.808;2024-02-23T09:33:47;94481.75;;;10.23;58.82
62978;BME280;49073;42.352;23.808;2024-02-23T09:36:49;94477.56;;;10.45;58.95
62978;BME280;49073;42.352;23.808;2024-02-23T09:39:50;94473.03;;;10.73;57.85
62978;BME280;49073;42.352;23.808;2024-02-23T09:42:55;94468.25;;;10.86;56.53
62978;BME280;49073;42.352;23.808;2024-02-23T09:45:56;94474.59;;;11.35;56.41
62978;BME280;49073;42.352;23.808;2024-02-23T09:48:58;94463.03;;;11.54;55.91
62978;BME280;49073;42.352;23.808;2024-02-23T09:51:59;94474.47;;;11.92;57.43
62978;BME280;49073;42.352;23.808;2024-02-23T09:55:00;94470.31;;;11.95;53.82
62978;BME280;49073;42.352;23.808;2024-02-23T09:58:04;94468.44;;;11.99;53.04
62978;BME280;49073;42.352;23.808;2024-02-23T10:01:07;94468.31;;;11.88;53.04
62978;BME280;49073;42.352;23.808;2024-02-23T10:04:07;94470.50;;;12.13;50.55
62978;BME280;49073;42.352;23.808;2024-02-23T10:07:08;94476.59;;;12.14;50.30
62978;BME280;49073;42.352;23.808;2024-02-23T10:10:10;94471.50;;;12.43;50.76
62978;BME280;49073;42.352;23.808;2024-02-23T10:13:13;94462.31;;;12.40;49.65
62978;BME280;49073;42.352;23.808;2024-02-23T10:16:13;94462.22;;;12.29;49.34
62978;BME280;49073;42.352;23.808;2024-02-23T10:19:14;94448.66;;;12.49;48.26
62978;BME280;49073;42.352;23.808;2024-02-23T10:22:15;94450.41;;;12.83;48.48
62978;BME280;49073;42.352;23.808;2024-02-23T10:25:15;94438.19;;;12.85;46.14
62978;BME280;49073;42.352;23.808;2024-02-23T10:28:16;94433.38;;;13.20;45.57
62978;BME280;49073;42.352;23.808;2024-02-23T10:31:17;94439.88;;;13.19;46.03
62978;BME280;49073;42.352;23.808;2024-02-23T10:34:19;94424.06;;;12.88;44.89
62978;BME280;49073;42.352;23.808;2024-02-23T10:37:22;94422.97;;;13.00;45.09
62978;BME280;49073;42.352;23.808;2024-02-23T10:40:23;94415.09;;;13.40;46.85
62978;BME280;49073;42.352;23.808;2024-02-23T10:43:41;94417.16;;;13.87;46.05
62978;BME280;49073;42.352;23.808;2024-02-23T10:46:45;94416.38;;;13.61;45.05
62978;BME280;49073;42.352;23.808;2024-02-23T10:49:46;94407.94;;;13.59;45.25
62978;BME280;49073;42.352;23.808;2024-02-23T10:52:48;94410.25;;;13.71;46.27
62978;BME280;49073;42.352;23.808;2024-02-23T10:55:56;94404.94;;;13.89;45.84
62978;BME280;49073;42.352;23.808;2024-02-23T10:58:59;94400.34;;;14.11;45.75
62978;BME280;49073;42.352;23.808;2024-02-23T11:02:00;94395.75;;;14.34;43.99
62978;BME280;49073;42.352;23.808;2024-02-23T11:05:02;94390.78;;;14.29;43.30
62978;BME280;49073;42.352;23.808;2024-02-23T11:08:06;94392.69;;;14.14;43.35
62978;BME280;49073;42.352;23.808;2024-02-23T11:11:07;94388.88;;;14.29;42.73
62978;BME280;49073;42.352;23.808;2024-02-23T11:14:08;94378.53;;;14.17;43.85
62978;BME280;49073;42.352;23.808;2024-02-23T11:17:18;94383.88;;;14.35;42.63
62978;BME280;49073;42.352;23.808;2024-02-23T11:20:20;94378.50;;;14.71;42.24
62978;BME280;49073;42.352;23.808;2024-02-23T11:23:25;94366.97;;;14.85;41.35
62978;BME280;49073;42.352;23.808;2024-02-23T11:26:26;94367.78;;;14.57;41.81
62978;BME280;49073;42.352;23.808;2024-02-23T11:29:29;94355.09;;;14.75;41.24
62978;BME280;49073;42.352;23.808;2024-02-23T11:32:59;94357.38;;;14.84;40.56
62978;BME280;49073;42.352;23.808;2024-02-23T11:36:07;94360.81;;;14.88;40.10
62978;BME280;49073;42.352;23.808;2024-02-23T11:39:08;94367.66;;;15.00;40.04
62978;BME280;49073;42.352;23.808;2024-02-23T11:42:12;94358.94;;;14.78;41.23
62978;BME280;49073;42.352;23.808;2024-02-23T11:45:12;94350.91;;;14.74;40.65
62978;BME280;49073;42.352;23.808;2024-02-23T11:48:13;94337.47;;;14.63;38.95
62978;BME280;49073;42.352;23.808;2024-02-23T11:51:14;94335.13;;;14.94;39.06
62978;BME280;49073;42.352;23.808;2024-02-23T11:54:15;94325.13;;;14.95;39.12
62978;BME280;49073;42.352;23.808;2024-02-23T11:57:16;94332.38;;;15.09;39.14
62978;BME280;49073;42.352;23.808;2024-02-23T12:00:17;94334.94;;;15.31;38.59
62978;BME280;49073;42.352;23.808;2024-02-23T12:03:18;94333.16;;;15.06;37.71
62978;BME280;49073;42.352;23.808;2024-02-23T12:06:19;94332.25;;;15.31;38.93
62978;BME280;49073;42.352;23.808;2024-02-23T12:09:20;94323.16;;;15.10;38.14
62978;BME280;49073;42.352;23.808;2024-02-23T12:12:21;94311.97;;;15.22;37.71
62978;BME280;49073;42.352;23.808;2024-02-23T12:15:22;94309.56;;;15.46;37.81
62978;BME280;49073;42.352;23.808;2024-02-23T12:18:23;94308.59;;;15.71;38.88
62978;BME280;49073;42.352;23.808;2024-02-23T12:21:26;94308.28;;;15.62;37.22
62978;BME280;49073;42.352;23.808;2024-02-23T12:24:27;94299.56;;;15.50;37.98
62978;BME280;49073;42.352;23.808;2024-02-23T12:27:30;94306.75;;;15.61;38.60
62978;BME280;49073;42.352;23.808;2024-02-23T12:30:31;94298.22;;;15.73;37.76
62978;BME280;49073;42.352;23.808;2024-02-23T12:33:37;94300.53;;;15.75;37.54
62978;BME280;49073;42.352;23.808;2024-02-23T12:36:40;94302.50;;;15.67;37.35
62978;BME280;49073;42.352;23.808;2024-02-23T12:39:40;94296.34;;;15.70;36.86
62978;BME280;49073;42.352;23.808;2024-02-23T12:42:41;94304.78;;;15.68;38.30
62978;BME280;49073;42.352;23.808;2024-02-23T12:45:42;94294.06;;;15.68;37.59
62978;BME280;49073;42.352;23.808;2024-02-23T12:48:45;94287.53;;;15.66;38.82
62978;BME280;49073;42.352;23.808;2024-02-23T12:51:45;94291.13;;;15.45;38.44
62978;BME280;49073;42.352;23.808;2024-02-23T12:54:46;94281.13;;;15.52;39.02
62978;BME280;49073;42.352;23.808;2024-02-23T12:57:46;94283.44;;;15.50;39.46
62978;BME280;49073;42.352;23.808;2024-02-23T13:00:47;94263.84;;;15.50;40.20
62978;BME280;49073;42.352;23.808;2024-02-23T13:03:47;94284.22;;;15.47;40.54
62978;BME280;49073;42.352;23.808;2024-02-23T13:06:48;94281.97;;;15.38;40.27
62978;BME280;49073;42.352;23.808;2024-02-23T13:09:49;94282.06;;;15.24;40.54
62978;BME280;49073;42.352;23.808;2024-02-23T13:12:50;94279.69;;;15.37;41.67
62978;BME280;49073;42.352;23.808;2024-02-23T13:15:52;94273.34;;;15.65;41.28
62978;BME280;49073;42.352;23.808;2024-02-23T13:18:54;94280.31;;;15.55;40.72
62978;BME280;49073;42.352;23.808;2024-02-23T13:21:54;94271.06;;;15.64;41.40
62978;BME280;49073;42.352;23.808;2024-02-23T13:24:55;94276.44;;;15.60;41.04
62978;BME280;49073;42.352;23.808;2024-02-23T13:27:55;94274.28;;;15.44;42.43
62978;BME280;49073;42.352;23.808;2024-02-23T13:30:56;94272.13;;;15.21;42.27
62978;BME280;49073;42.352;23.808;2024-02-23T13:33:56;94270.50;;;15.34;41.82
62978;BME280;49073;42.352;23.808;2024-02-23T13:36:57;94279.75;;;15.22;41.86
62978;BME280;49073;42.352;23.808;2024-02-23T13:39:58;94280.22;;;15.13;42.81
62978;BME280;49073;42.352;23.808;2024-02-23T13:42:58;94266.16;;;14.88;43.88
62978;BME280;49073;42.352;23.808;2024-02-23T13:45:59;94281.16;;;14.78;43.36
62978;BME280;49073;42.352;23.808;2024-02-23T13:49:05;94281.94;;;14.71;43.85
62978;BME280;49073;42.352;23.808;2024-02-23T13:52:06;94270.84;;;14.58;43.97
62978;BME280;49073;42.352;23.808;2024-02-23T13:55:07;94272.75;;;14.61;44.35
62978;BME280;49073;42.352;23.808;2024-02-23T13:58:07;94270.47;;;14.56;44.23
62978;BME280;49073;42.352;23.808;2024-02-23T14:01:08;94277.69;;;14.66;44.79
62978;BME280;49073;42.352;23.808;2024-02-23T14:04:08;94278.13;;;14.58;44.58
62978;BME280;49073;42.352;23.808;2024-02-23T14:07:09;94282.41;;;14.44;44.93
62978;BME280;49073;42.352;23.808;2024-02-23T14:10:10;94285.84;;;14.34;44.94
62978;BME280;49073;42.352;23.808;2024-02-23T14:13:11;94282.81;;;14.14;44.87
62978;BME280;49073;42.352;23.808;2024-02-23T14:16:11;94288.56;;;14.23;44.95
62978;BME280;49073;42.352;23.808;2024-02-23T14:19:12;94285.91;;;14.16;45.37
62978;BME280;49073;42.352;23.808;2024-02-23T14:22:15;94287.81;;;14.04;44.91
62978;BME280;49073;42.352;23.808;2024-02-23T14:25:16;94284.00;;;14.02;45.24
62978;BME280;49073;42.352;23.808;2024-02-23T14:28:17;94285.91;;;14.05;44.88
62978;BME280;49073;42.352;23.808;2024-02-23T14:31:18;94276.34;;;14.00;45.13
62978;BME280;49073;42.352;23.808;2024-02-23T14:34:18;94284.03;;;13.87;44.89
62978;BME280;49073;42.352;23.808;2024-02-23T14:37:21;94289.75;;;13.57;45.52
62978;BME280;49073;42.352;23.808;2024-02-23T14:40:22;94291.28;;;13.58;45.67
62978;BME280;49073;42.352;23.808;2024-02-23T14:43:22;94291.25;;;13.50;45.62
62978;BME280;49073;42.352;23.808;2024-02-23T14:46:23;94296.19;;;13.27;45.84
62978;BME280;49073;42.352;23.808;2024-02-23T14:49:23;94299.97;;;13.04;45.75
62978;BME280;49073;42.352;23.808;2024-02-23T14:52:24;94299.19;;;13.00;46.07
62978;BME280;49073;42.352;23.808;2024-02-23T14:55:25;94299.16;;;12.96;46.64
62978;BME280;49073;42.352;23.808;2024-02-23T14:58:26;94306.00;;;12.83;46.50
62978;BME280;49073;42.352;23.808;2024-02-23T15:01:27;94305.59;;;12.77;46.83
62978;BME280;49073;42.352;23.808;2024-02-23T15:04:28;94312.81;;;12.65;47.50
62978;BME280;49073;42.352;23.808;2024-02-23T15:07:28;94306.72;;;12.69;47.86
62978;BME280;49073;42.352;23.808;2024-02-23T15:10:29;94308.97;;;12.63;47.16
62978;BME280;49073;42.352;23.808;2024-02-23T15:13:29;94311.25;;;12.57;47.41
62978;BME280;49073;42.352;23.808;2024-02-23T15:16:30;94307.41;;;12.55;47.73
62978;BME280;49073;42.352;23.808;2024-02-23T15:19:33;94326.03;;;12.40;48.02
62978;BME280;49073;42.352;23.808;2024-02-23T15:22:36;94323.03;;;12.49;47.94
62978;BME280;49073;42.352;23.808;2024-02-23T15:25:42;94318.84;;;12.48;47.94
62978;BME280;49073;42.352;23.808;2024-02-23T15:28:43;94324.81;;;12.30;48.36
62978;BME280;49073;42.352;23.808;2024-02-23T15:31:44;94324.06;;;12.30;48.21
62978;BME280;49073;42.352;23.808;2024-02-23T15:34:45;94327.81;;;12.18;47.88
62978;BME280;49073;42.352;23.808;2024-02-23T15:37:45;94334.28;;;12.17;47.87
62978;BME280;49073;42.352;23.808;2024-02-23T15:40:46;94329.28;;;12.12;48.36
62978;BME280;49073;42.352;23.808;2024-02-23T15:43:48;94333.88;;;12.11;48.32
62978;BME280;49073;42.352;23.808;2024-02-23T15:46:49;94342.22;;;12.02;48.70
62978;BME280;49073;42.352;23.808;2024-02-23T15:49:49;94348.69;;;12.01;49.87
62978;BME280;49073;42.352;23.808;2024-02-23T15:52:51;94356.63;;;11.94;50.08